createdAt,value
2023-01-11T00:00:50.811Z,5.42
2023-01-11T00:04:16.193Z,5.43
2023-01-11T00:07:41.418Z,5.47
2023-01-11T00:11:06.721Z,5.46
2023-01-11T00:14:31.965Z,5.47
2023-01-11T00:17:57.245Z,5.44
2023-01-11T00:21:22.536Z,5.4
2023-01-11T00:24:47.828Z,5.4
2023-01-11T00:28:13.120Z,5.39
2023-01-11T00:31:38.392Z,5.4
2023-01-11T00:35:03.633Z,5.41
2023-01-11T00:38:28.906Z,5.42
2023-01-11T00:41:54.219Z,5.42
2023-01-11T00:45:19.582Z,5.39
2023-01-11T00:48:44.848Z,5.37
2023-01-11T00:52:10.233Z,5.37
2023-01-11T00:55:35.410Z,5.41
2023-01-11T00:59:00.721Z,5.38
2023-01-11T01:02:26.098Z,5.32
2023-01-11T01:05:51.325Z,5.31
2023-01-11T01:09:16.594Z,5.31
2023-01-11T01:12:41.852Z,5.25
2023-01-11T01:16:07.164Z,5.22
2023-01-11T01:19:32.441Z,5.18
2023-01-11T01:22:57.688Z,5.16
2023-01-11T01:26:23.016Z,5.18
2023-01-11T01:29:48.314Z,5.21
2023-01-11T01:33:13.578Z,5.24
2023-01-11T01:36:38.936Z,5.27
2023-01-11T01:40:04.172Z,5.31
2023-01-11T01:43:29.422Z,5.38
2023-01-11T01:46:54.689Z,5.52
2023-01-11T01:50:20.032Z,5.62
2023-01-11T01:53:45.385Z,5.65
2023-01-11T01:57:10.689Z,5.67
2023-01-11T02:00:35.939Z,5.68
2023-01-11T02:04:01.208Z,5.72
2023-01-11T02:07:26.476Z,5.75
2023-01-11T02:10:51.770Z,5.77
2023-01-11T02:14:17.081Z,5.84
2023-01-11T02:17:42.335Z,5.91
2023-01-11T02:21:07.663Z,5.98
2023-01-11T02:24:32.957Z,6.03
2023-01-11T02:27:58.249Z,6.05
2023-01-11T02:31:23.577Z,6.04
2023-01-11T02:34:48.806Z,6.03
2023-01-11T02:38:14.093Z,6.01
2023-01-11T02:41:39.389Z,5.99
2023-01-11T02:45:04.717Z,5.92
2023-01-11T02:48:29.995Z,5.85
2023-01-11T02:51:55.267Z,5.8
2023-01-11T02:55:20.538Z,5.77
2023-01-11T02:58:45.832Z,5.75
2023-01-11T03:02:11.123Z,5.73
2023-01-11T03:05:36.360Z,5.67
2023-01-11T03:09:01.650Z,5.64
2023-01-11T03:12:26.934Z,5.64
2023-01-11T03:15:52.222Z,5.68
2023-01-11T03:19:17.514Z,5.68
2023-01-11T03:22:42.811Z,5.65
2023-01-11T03:26:08.042Z,5.63
2023-01-11T03:29:33.294Z,5.62
2023-01-11T03:32:58.590Z,5.58
2023-01-11T03:36:23.875Z,5.59
2023-01-11T03:39:49.133Z,5.59
2023-01-11T03:43:14.489Z,5.63
2023-01-11T03:46:39.774Z,5.66
2023-01-11T03:50:05.028Z,5.68
2023-01-11T03:53:30.279Z,5.73
2023-01-11T03:56:55.500Z,5.77
2023-01-11T04:00:20.793Z,5.79
2023-01-11T04:03:46.052Z,5.82
2023-01-11T04:07:11.317Z,5.89
2023-01-11T04:10:36.650Z,5.92
2023-01-11T04:14:01.915Z,5.96
2023-01-11T04:17:27.143Z,6.01
2023-01-11T04:20:52.399Z,6.08
2023-01-11T04:24:17.680Z,6.12
2023-01-11T04:27:43.004Z,6.1
2023-01-11T04:31:08.279Z,6.14
2023-01-11T04:34:33.687Z,6.21
2023-01-11T04:37:58.973Z,6.23
2023-01-11T04:41:24.199Z,6.25
2023-01-11T04:44:49.480Z,6.3
2023-01-11T04:48:14.718Z,6.3
2023-01-11T04:51:39.947Z,6.32
2023-01-11T04:55:05.220Z,6.32
2023-01-11T04:58:30.459Z,6.33
2023-01-11T05:01:55.706Z,6.37
2023-01-11T05:05:20.930Z,6.42
2023-01-11T05:08:46.167Z,6.44
2023-01-11T05:12:11.428Z,6.45
2023-01-11T05:15:36.666Z,6.48
2023-01-11T05:19:01.914Z,6.53
2023-01-11T05:22:27.155Z,6.53
2023-01-11T05:25:52.392Z,6.52
2023-01-11T05:29:17.657Z,6.54
2023-01-11T05:32:42.914Z,6.55
2023-01-11T05:36:08.179Z,6.53
2023-01-11T05:39:33.415Z,6.5
2023-01-11T05:42:58.795Z,6.46
2023-01-11T05:46:24.070Z,6.51
2023-01-11T05:49:49.459Z,6.54
2023-01-11T05:53:14.803Z,6.6
2023-01-11T05:56:40.167Z,6.63
2023-01-11T06:00:05.492Z,6.66
2023-01-11T06:03:30.801Z,6.69
2023-01-11T06:06:56.143Z,6.73
2023-01-11T06:10:21.381Z,6.79
2023-01-11T06:13:46.632Z,6.8
2023-01-11T06:17:11.905Z,6.81
2023-01-11T06:20:37.233Z,6.83
2023-01-11T06:24:02.508Z,6.86
2023-01-11T06:27:27.803Z,6.9
2023-01-11T06:30:53.086Z,6.95
2023-01-11T06:34:18.384Z,6.96
2023-01-11T06:37:43.652Z,6.99
2023-01-11T06:41:08.977Z,6.98
2023-01-11T06:44:34.235Z,7.03
2023-01-11T06:47:59.515Z,7.08
2023-01-11T06:51:24.747Z,7.12
2023-01-11T06:54:50.038Z,7.18
2023-01-11T06:58:15.276Z,7.23
2023-01-11T07:01:40.639Z,7.24
2023-01-11T07:05:05.831Z,7.26
2023-01-11T07:08:31.066Z,7.31
2023-01-11T07:11:56.388Z,7.33
2023-01-11T07:15:21.720Z,7.3
2023-01-11T07:18:47.276Z,7.28
2023-01-11T07:22:12.586Z,7.27
2023-01-11T07:25:37.893Z,7.32
2023-01-11T07:29:03.232Z,7.37
2023-01-11T07:32:28.532Z,7.36
2023-01-11T07:35:54.107Z,7.35
2023-01-11T07:39:19.276Z,7.35
2023-01-11T07:42:44.590Z,7.36
2023-01-11T07:46:09.986Z,7.4
2023-01-11T07:49:35.206Z,7.44
2023-01-11T07:53:00.527Z,7.43
2023-01-11T07:56:25.947Z,7.43
2023-01-11T07:59:51.136Z,7.43
2023-01-11T08:03:16.641Z,7.44
2023-01-11T08:06:41.957Z,7.47
2023-01-11T08:10:07.315Z,7.49
2023-01-11T08:13:32.520Z,7.55
2023-01-11T08:16:57.805Z,7.71
2023-01-11T08:20:23.067Z,7.94
2023-01-11T08:23:48.345Z,8.18
2023-01-11T08:27:13.817Z,8.35
2023-01-11T08:30:38.917Z,8.48
2023-01-11T08:34:04.135Z,8.53
2023-01-11T08:37:29.362Z,8.55
2023-01-11T08:40:54.627Z,8.56
2023-01-11T08:44:33.217Z,8.63
2023-01-11T08:47:45.148Z,8.64
2023-01-11T08:51:10.381Z,8.69
2023-01-11T08:54:35.632Z,8.7
2023-01-11T08:58:00.905Z,8.71
2023-01-11T09:01:26.635Z,8.6
2023-01-11T09:04:51.924Z,8.46
2023-01-11T09:08:17.196Z,8.38
2023-01-11T09:11:42.492Z,8.3
2023-01-11T09:15:07.773Z,8.25
2023-01-11T09:18:33.037Z,8.21
2023-01-11T09:21:58.288Z,8.22
2023-01-11T09:25:23.597Z,8.23
2023-01-11T09:28:48.902Z,8.21
2023-01-11T09:32:14.089Z,8.2
2023-01-11T09:35:39.489Z,8.21
2023-01-11T09:39:04.610Z,8.26
2023-01-11T09:42:29.900Z,8.29
2023-01-11T09:45:55.145Z,8.31
2023-01-11T09:49:20.419Z,8.35
2023-01-11T09:52:45.759Z,8.4
2023-01-11T09:56:11.007Z,8.43
2023-01-11T09:59:36.264Z,8.47
2023-01-11T10:03:01.505Z,8.52
2023-01-11T10:06:26.765Z,8.57
2023-01-11T10:18:23.990Z,8.67
2023-01-11T10:20:07.868Z,8.71
2023-01-11T10:23:33.701Z,8.74
2023-01-11T10:26:59.121Z,8.78
2023-01-11T10:30:24.209Z,8.86
2023-01-11T10:33:49.462Z,8.91
2023-01-11T10:37:14.704Z,8.95
2023-01-11T10:40:40.001Z,9.02
2023-01-11T10:44:05.276Z,9.08
2023-01-11T10:47:30.471Z,9.15
2023-01-11T10:50:55.720Z,9.18
2023-01-11T10:54:20.940Z,9.19
2023-01-11T10:57:59.555Z,9.17
2023-01-11T11:01:11.540Z,9.14
2023-01-11T11:04:36.730Z,9.12
2023-01-11T11:08:01.932Z,9.11
2023-01-11T11:11:27.185Z,9.06
2023-01-11T11:14:52.432Z,9.02
2023-01-11T11:18:17.725Z,9.01
2023-01-11T11:21:42.959Z,9.04
2023-01-11T11:25:08.235Z,9.07
2023-01-11T11:28:33.507Z,9.09
2023-01-11T11:31:58.818Z,9.13
2023-01-11T11:35:24.005Z,9.19
2023-01-11T11:38:49.245Z,9.19
2023-01-11T11:42:14.512Z,9.23
2023-01-11T11:45:39.855Z,9.27
2023-01-11T11:49:05.009Z,9.29
2023-01-11T11:52:30.277Z,9.33
2023-01-11T11:55:55.502Z,9.35
2023-01-11T11:59:20.772Z,9.41
2023-01-11T12:02:46.034Z,9.44
2023-01-11T12:06:11.300Z,9.42
2023-01-11T12:09:36.631Z,9.46
2023-01-11T12:13:01.810Z,9.56
2023-01-11T12:16:27.078Z,9.6
2023-01-11T12:19:52.327Z,9.66
2023-01-11T12:23:17.568Z,9.71
2023-01-11T12:26:42.986Z,9.75
2023-01-11T12:30:08.120Z,9.77
2023-01-11T12:33:33.394Z,9.76
2023-01-11T12:36:58.657Z,9.78
2023-01-11T12:40:23.932Z,9.8
2023-01-11T12:43:49.254Z,9.84
2023-01-11T12:47:15.728Z,9.85
2023-01-11T12:54:05.142Z,9.87
2023-01-11T12:57:30.411Z,9.9
2023-01-11T13:00:55.824Z,9.93
2023-01-11T13:04:21.082Z,9.99
2023-01-11T13:07:46.430Z,10.06
2023-01-11T13:11:11.738Z,10.03
2023-01-11T13:14:37.038Z,10.06
2023-01-11T13:18:02.389Z,10.1
2023-01-11T13:21:27.647Z,10.12
2023-01-11T13:24:52.947Z,10.17
2023-01-11T13:28:23.817Z,10.17
2023-01-11T13:31:43.703Z,10.16
2023-01-11T13:35:09.003Z,10.16
2023-01-11T13:38:34.804Z,10.2
2023-01-11T13:41:59.576Z,10.19
2023-01-11T13:45:24.837Z,10.21
2023-01-11T13:48:50.173Z,10.26
2023-01-11T13:52:15.513Z,10.28
2023-01-11T13:55:40.741Z,10.33
2023-01-11T13:59:06.032Z,10.37
2023-01-11T14:02:31.317Z,10.38
2023-01-11T14:05:56.616Z,10.41
2023-01-11T14:09:21.966Z,10.44
2023-01-11T14:12:47.257Z,10.44
2023-01-11T14:16:12.611Z,10.43
2023-01-11T14:19:37.937Z,10.47
2023-01-11T14:23:03.245Z,10.49
2023-01-11T14:26:28.635Z,10.53
2023-01-11T14:29:53.865Z,10.57
2023-01-11T15:05:04.158Z,8.4
2023-01-11T15:08:29.559Z,9.35
2023-01-11T15:11:54.856Z,9.57
2023-01-11T15:15:20.117Z,9.75
2023-01-11T15:18:45.408Z,9.88
2023-01-11T15:22:10.761Z,10.03
2023-01-11T15:25:36.252Z,10.13
2023-01-11T15:29:01.834Z,10.2
2023-01-11T15:32:27.187Z,10.24
2023-01-11T15:35:52.520Z,10.32
2023-01-11T15:39:18.006Z,10.42
2023-01-11T15:42:43.294Z,10.52
2023-01-11T15:46:08.644Z,10.57
2023-01-11T15:49:34.656Z,10.6
2023-01-11T15:52:59.994Z,10.61
2023-01-11T15:56:25.374Z,10.63
2023-01-11T15:59:51.684Z,10.64
2023-01-11T16:03:17.610Z,10.67
2023-01-11T16:06:43.438Z,10.73
2023-01-11T16:10:08.774Z,10.74
2023-01-11T16:13:34.173Z,10.73
2023-01-11T16:16:59.512Z,10.72
2023-01-11T16:20:25.063Z,10.73
2023-01-11T16:23:50.410Z,10.7
2023-01-11T16:27:15.865Z,10.71
2023-01-11T16:30:43.087Z,10.69
2023-01-11T16:34:08.420Z,10.61
2023-01-11T16:37:33.809Z,10.56
2023-01-11T16:40:59.166Z,10.56
2023-01-11T16:44:24.546Z,10.53
2023-01-11T16:47:49.837Z,10.45
2023-01-11T16:51:15.117Z,10.29
2023-01-11T16:54:40.475Z,10.14
2023-01-11T16:58:05.795Z,9.99
2023-01-11T17:01:31.159Z,9.85
2023-01-11T17:04:56.522Z,9.78
2023-01-11T17:08:21.637Z,9.67
2023-01-11T17:11:46.916Z,9.6
2023-01-11T17:15:12.171Z,9.56
2023-01-11T17:18:37.421Z,9.57
2023-01-11T17:22:02.966Z,9.59
2023-01-11T17:25:37.234Z,9.57
2023-01-11T17:28:53.407Z,9.56
2023-01-11T17:32:19.107Z,9.55
2023-01-11T17:35:44.338Z,9.56
2023-01-11T17:39:09.622Z,9.53
2023-01-11T17:42:34.871Z,9.51
2023-01-11T17:46:00.245Z,9.51
2023-01-11T17:49:25.374Z,9.49
2023-01-11T17:52:55.567Z,9.47
2023-01-11T17:56:15.932Z,9.47
2023-01-11T17:59:41.132Z,9.48
2023-01-11T18:03:06.380Z,9.5
2023-01-11T18:06:31.643Z,9.48
2023-01-11T18:09:56.886Z,9.46
2023-01-11T18:13:22.188Z,9.43
2023-01-11T18:16:47.409Z,9.41
2023-01-11T18:20:12.702Z,9.37
2023-01-11T18:23:37.952Z,9.33
2023-01-11T18:27:03.274Z,9.3
2023-01-11T18:30:28.626Z,9.26
2023-01-11T18:33:53.876Z,9.24
2023-01-11T18:37:19.161Z,9.21
2023-01-11T18:40:44.519Z,9.21
2023-01-11T18:44:09.808Z,9.23
2023-01-11T18:47:35.210Z,9.24
2023-01-11T18:51:00.459Z,9.26
2023-01-11T18:54:25.880Z,9.32
2023-01-11T18:57:51.154Z,9.34
2023-01-11T19:01:16.523Z,9.33
2023-01-11T19:04:42.713Z,9.37
2023-01-11T19:08:08.105Z,9.33
2023-01-11T19:11:33.433Z,9.32
2023-01-11T19:14:58.772Z,9.32
2023-01-11T19:18:24.094Z,9.31
2023-01-11T19:21:49.429Z,9.31
2023-01-11T19:25:14.719Z,9.35
2023-01-11T19:28:39.978Z,9.38
2023-01-11T19:32:05.450Z,9.38
2023-01-11T19:35:30.772Z,9.36
2023-01-11T19:38:56.227Z,9.31
2023-01-11T19:42:21.614Z,9.19
2023-01-11T19:45:46.964Z,9.06
2023-01-11T19:49:12.285Z,8.97
2023-01-11T19:52:37.677Z,8.95
2023-01-11T19:56:03.014Z,8.95
2023-01-11T19:59:28.311Z,8.95
2023-01-11T20:02:53.712Z,8.9
2023-01-11T20:06:18.926Z,8.89
2023-01-11T20:09:44.257Z,8.84
2023-01-11T20:13:09.540Z,8.82
2023-01-11T20:16:34.857Z,8.83
2023-01-11T20:20:00.194Z,8.83
2023-01-11T20:23:25.442Z,8.83
2023-01-11T20:26:50.770Z,8.83
2023-01-11T20:30:16.100Z,8.79
2023-01-11T20:33:41.380Z,8.75
2023-01-11T20:37:06.700Z,8.7
2023-01-11T20:40:32.017Z,8.73
2023-01-11T20:43:57.353Z,8.72
2023-01-11T20:47:22.812Z,8.73
2023-01-11T20:50:48.029Z,8.69
2023-01-11T20:54:13.262Z,8.67
2023-01-11T20:57:38.505Z,8.68
2023-01-11T21:01:03.750Z,8.67
2023-01-11T21:04:29.091Z,8.74
2023-01-11T21:07:54.275Z,8.78
2023-01-11T21:11:19.515Z,8.8
2023-01-11T21:14:44.757Z,8.8
2023-01-11T21:18:10.023Z,8.82
2023-01-11T21:21:35.288Z,8.81
2023-01-11T21:25:00.499Z,8.82
2023-01-11T21:28:25.748Z,8.73
2023-01-11T21:31:50.992Z,8.59
2023-01-11T21:35:16.226Z,8.5
2023-01-11T21:38:41.519Z,8.43
2023-01-11T21:42:06.714Z,8.4
2023-01-11T21:45:31.965Z,8.41
2023-01-11T21:48:57.225Z,8.46
2023-01-11T21:52:22.460Z,8.47
2023-01-11T21:55:47.720Z,8.48
2023-01-11T21:59:12.971Z,8.53
2023-01-11T22:02:38.221Z,8.57
2023-01-11T22:06:03.481Z,8.64
2023-01-11T22:09:28.783Z,8.68
2023-01-11T22:12:54.092Z,8.74
2023-01-11T22:16:19.276Z,8.75
2023-01-11T22:19:44.483Z,8.75
2023-01-11T22:23:09.737Z,8.73
2023-01-11T22:26:34.990Z,8.67
2023-01-11T22:30:00.273Z,8.57
2023-01-11T22:33:25.479Z,8.5
2023-01-11T22:36:50.729Z,8.47
2023-01-11T22:40:15.960Z,8.42
2023-01-11T22:43:41.212Z,8.4
2023-01-11T22:47:06.503Z,8.36
2023-01-11T22:50:31.718Z,8.39
2023-01-11T22:53:56.982Z,8.4
2023-01-11T22:57:22.232Z,8.41
2023-01-11T23:00:47.479Z,8.41
2023-01-11T23:04:12.754Z,8.44
2023-01-11T23:07:38.005Z,8.41
2023-01-11T23:11:03.277Z,8.4
2023-01-11T23:14:28.519Z,8.38
2023-01-11T23:17:53.749Z,8.3
2023-01-11T23:21:19.023Z,8.26
2023-01-11T23:24:44.231Z,8.22
2023-01-11T23:28:09.509Z,8.19
2023-01-11T23:31:34.813Z,8.19
2023-01-11T23:35:00.040Z,8.24
2023-01-11T23:38:25.453Z,8.32
2023-01-11T23:41:50.558Z,8.33
2023-01-11T23:45:15.815Z,8.37
2023-01-11T23:48:41.057Z,8.42
2023-01-11T23:52:06.307Z,8.42
2023-01-11T23:55:31.569Z,8.45
2023-01-11T23:58:56.806Z,8.46
